Time;durP1;ratioP1;P1;durP2;ratioP2;P2;SDS_P1;SDS_P2;PMS_P1;PMS_P2;Temp;Humidity;BMP_temperature;BMP_pressure;BME280_temperature;BME280_humidity;BME280_pressure;Samples;Min_cycle;Max_cycle;Signal;HPM_P1;HPM_P2
2023/11/25 00:00:16;;;;;;;22.40;7.22;;;;;;;-3.02;71.35;96297.66;5011464;28;20037;-38
2023/11/25 00:02:43;;;;;;;15.85;6.90;;;;;;;-3.28;71.17;96249.50;5028190;28;20048;-35
2023/11/25 00:05:09;;;;;;;21.88;8.85;;;;;;;-2.98;71.10;96295.84;5020781;28;20056;-36
2023/11/25 00:07:35;;;;;;;20.25;7.85;;;;;;;-3.03;71.19;96301.09;5025987;28;20119;-36
2023/11/25 00:10:03;;;;;;;20.65;8.57;;;;;;;-3.10;71.37;96304.75;5027745;28;20509;-35
2023/11/25 00:12:29;;;;;;;19.88;8.30;;;;;;;-3.13;71.96;96301.47;5028604;28;20073;-37
2023/11/25 00:14:55;;;;;;;16.15;7.75;;;;;;;-3.17;71.93;96305.00;5017054;28;20073;-35
2023/11/25 00:17:22;;;;;;;19.88;7.30;;;;;;;-3.34;71.86;96270.03;5023071;28;20049;-36
2023/11/25 00:19:48;;;;;;;19.42;7.53;;;;;;;-3.11;71.94;96297.16;5052331;28;20041;-34
2023/11/25 00:22:14;;;;;;;20.58;8.52;;;;;;;-3.23;72.03;96280.63;5025108;28;20103;-38
2023/11/25 00:24:40;;;;;;;19.67;8.57;;;;;;;-3.14;72.00;96305.72;5022037;28;20049;-36
2023/11/25 00:27:06;;;;;;;20.80;9.13;;;;;;;-3.17;72.53;96295.66;5025339;28;20041;-35
2023/11/25 00:29:31;;;;;;;17.65;8.05;;;;;;;-3.15;72.25;96309.16;5026843;28;20103;-35
2023/11/25 00:31:57;;;;;;;20.20;8.18;;;;;;;-3.16;72.10;96315.09;5026626;28;20037;-35
2023/11/25 00:34:24;;;;;;;20.85;8.07;;;;;;;-3.34;72.18;96287.78;5027696;28;20049;-40
2023/11/25 00:36:54;;;;;;;18.40;7.68;;;;;;;-3.17;72.47;96312.63;5008924;28;20056;-35
2023/11/25 00:39:20;;;;;;;;;;;;;;;-3.24;72.15;96308.63;5025415;28;20053;-35
2023/11/25 00:41:47;;;;;;;18.65;7.25;;;;;;;-3.24;72.19;96313.69;5027486;28;19939;-36
2023/11/25 00:44:13;;;;;;;22.73;8.98;;;;;;;-3.24;72.16;96308.63;4999327;28;20050;-36
2023/11/25 00:46:39;;;;;;;19.63;8.07;;;;;;;-3.31;71.95;96314.81;5021424;28;20091;-36
2023/11/25 00:49:06;;;;;;;21.75;8.68;;;;;;;-3.35;71.80;96310.72;5025919;28;20039;-36
2023/11/25 00:51:32;;;;;;;26.27;9.40;;;;;;;-3.34;72.11;96299.66;5010961;28;20472;-35
2023/11/25 00:53:58;;;;;;;19.60;8.68;;;;;;;-3.34;72.20;96305.56;5025924;28;20403;-36
2023/11/25 00:56:24;;;;;;;20.98;8.77;;;;;;;-3.32;71.97;96313.97;5014999;28;20048;-36
2023/11/25 00:58:49;;;;;;;22.55;8.85;;;;;;;-3.33;72.20;96319.94;5027226;28;20034;-36
2023/11/25 01:01:15;;;;;;;22.05;9.57;;;;;;;-3.33;72.10;96319.94;5025351;28;20045;-35
2023/11/25 01:03:41;;;;;;;20.92;8.25;;;;;;;-3.22;71.98;96320.41;5026342;28;20041;-35
2023/11/25 01:06:08;;;;;;;22.30;9.27;;;;;;;-3.24;71.92;96321.31;5027302;28;20052;-35
2023/11/25 01:08:36;;;;;;;21.77;9.27;;;;;;;-3.57;71.91;96263.19;5021182;28;20460;-35
2023/11/25 01:11:02;;;;;;;18.98;8.30;;;;;;;-3.24;72.12;96324.69;4997757;28;20256;-35
2023/11/25 01:13:28;;;;;;;24.90;9.07;;;;;;;-3.33;72.37;96309.78;5010236;28;20454;-34
2023/11/25 01:15:54;;;;;;;20.02;8.93;;;;;;;-3.59;72.14;96259.03;5025784;28;20065;-35
2023/11/25 01:18:20;;;;;;;21.42;9.18;;;;;;;-3.22;71.66;96324.63;5028534;28;20069;-35
2023/11/25 01:20:46;;;;;;;15.13;6.95;;;;;;;-3.34;71.96;96304.72;5025492;28;20688;-35
2023/11/25 01:23:12;;;;;;;17.08;8.00;;;;;;;-3.19;72.08;96327.91;5023299;28;20033;-34
2023/11/25 01:25:38;;;;;;;19.88;8.10;;;;;;;-3.40;72.16;96298.16;5032888;28;20552;-36
2023/11/25 01:28:05;;;;;;;19.73;8.02;;;;;;;-3.17;71.93;96332.94;5025080;28;20065;-36
2023/11/25 01:30:31;;;;;;;15.38;6.97;;;;;;;-3.23;72.02;96340.75;5026806;28;20045;-36
2023/11/25 01:32:58;;;;;;;16.55;7.93;;;;;;;-3.39;71.85;96320.13;5040362;28;20045;-37
2023/11/25 01:35:25;;;;;;;19.02;7.60;;;;;;;-3.27;71.81;96351.91;5026883;28;20401;-35
2023/11/25 01:37:51;;;;;;;19.55;7.90;;;;;;;-3.25;72.22;96343.38;5027042;28;20535;-35
2023/11/25 01:40:17;;;;;;;18.52;7.65;;;;;;;-3.26;72.01;96351.03;5020690;28;20056;-35
2023/11/25 01:42:44;;;;;;;19.55;7.35;;;;;;;-3.21;72.11;96359.31;5026592;28;20045;-36
2023/11/25 01:45:10;;;;;;;20.42;7.35;;;;;;;-3.20;72.26;96355.91;5026491;28;20045;-36
2023/11/25 01:47:36;;;;;;;15.82;6.85;;;;;;;-3.20;72.22;96361.00;5007650;28;20041;-35
2023/11/25 01:50:05;;;;;;;17.25;6.90;;;;;;;-3.17;72.09;96358.34;5041046;28;20052;-37
2023/11/25 01:52:32;;;;;;;20.02;8.75;;;;;;;-3.19;72.00;96358.38;5009728;28;20106;-35
2023/11/25 01:55:01;;;;;;;22.70;8.80;;;;;;;-3.15;72.13;96357.41;5024845;28;20073;-45
2023/11/25 01:57:29;;;;;;;17.25;7.22;;;;;;;-3.05;72.05;96361.31;5008824;28;20501;-34
2023/11/25 01:59:56;;;;;;;20.00;7.40;;;;;;;-2.99;72.05;96365.34;5025089;28;20063;-36
2023/11/25 02:02:26;;;;;;;18.55;7.55;;;;;;;-2.98;72.10;96366.97;5008685;28;20038;-35
2023/11/25 02:04:52;;;;;;;15.48;7.00;;;;;;;-2.98;72.09;96374.59;5025543;28;20056;-35
2023/11/25 02:07:21;;;;;;;21.00;7.80;;;;;;;-2.94;71.92;96377.88;5014653;28;20477;-35
2023/11/25 02:09:47;;;;;;;16.05;6.68;;;;;;;-2.91;71.77;96381.13;5024336;28;20280;-35
2023/11/25 02:12:15;;;;;;;18.50;8.10;;;;;;;-3.12;71.65;96338.69;5024635;28;20045;-34
2023/11/25 02:14:42;;;;;;;18.83;7.57;;;;;;;-2.83;71.44;96381.72;5018046;28;20124;-35
2023/11/25 02:17:07;;;;;;;20.38;8.02;;;;;;;-2.79;71.37;96380.72;5021283;28;20045;-36
2023/11/25 02:19:33;;;;;;;17.33;7.45;;;;;;;-2.79;71.31;96382.44;5006699;28;20041;-36
2023/11/25 02:22:00;;;;;;;18.98;7.53;;;;;;;-2.95;71.40;96356.72;5025163;28;20052;-34
2023/11/25 02:24:26;;;;;;;16.65;7.47;;;;;;;-2.83;71.38;96384.25;5023432;28;20038;-35
2023/11/25 02:26:59;;;;;;;17.85;6.93;;;;;;;-2.84;71.26;96391.94;5040414;28;20049;-36
2023/11/25 02:29:26;;;;;;;15.55;6.60;;;;;;;-3.03;70.89;96364.59;5021907;28;20537;-34
2023/11/25 02:31:52;;;;;;;14.35;6.32;;;;;;;-3.08;70.84;96365.63;5021139;28;20143;-35
2023/11/25 02:34:20;;;;;;;16.42;6.53;;;;;;;-2.96;71.07;96399.97;5025129;28;20128;-35
2023/11/25 02:36:46;;;;;;;15.23;6.65;;;;;;;-3.00;71.01;96406.88;5022101;28;20045;-35
2023/11/25 02:39:14;;;;;;;14.57;6.05;;;;;;;-3.05;71.02;96404.50;5021947;28;20502;-36
2023/11/25 02:41:40;;;;;;;14.75;6.63;;;;;;;-3.01;71.07;96402.66;5023344;28;20552;-35
2023/11/25 02:44:07;;;;;;;17.52;6.43;;;;;;;-3.01;71.10;96411.13;5022921;28;20052;-35
2023/11/25 02:46:33;;;;;;;15.05;6.78;;;;;;;-3.01;70.96;96416.19;5025774;28;20041;-35
2023/11/25 02:48:59;;;;;;;18.05;5.38;;;;;;;-3.03;71.04;96424.75;5025110;28;20120;-35
2023/11/25 02:51:25;;;;;;;12.93;5.80;;;;;;;-3.03;71.01;96420.50;4988369;28;20045;-35
2023/11/25 02:53:51;;;;;;;17.35;6.15;;;;;;;-3.18;71.02;96398.13;5025020;28;20049;-34
2023/11/25 02:56:17;;;;;;;13.10;6.22;;;;;;;-3.02;71.03;96421.31;5019460;28;20517;-36
2023/11/25 02:58:43;;;;;;;17.35;6.10;;;;;;;-3.26;71.13;96396.75;5023882;28;20045;-35
2023/11/25 03:01:11;;;;;;;16.08;6.07;;;;;;;-3.04;70.87;96423.94;5012233;28;20232;-36
2023/11/25 03:03:42;;;;;;;14.20;5.63;;;;;;;-3.02;70.96;96429.78;5028672;28;20513;-35
2023/11/25 03:06:08;;;;;;;13.38;5.32;;;;;;;-3.03;71.32;96425.56;5028742;28;20079;-36
2023/11/25 03:08:34;;;;;;;14.02;6.47;;;;;;;-3.04;71.42;96436.63;5029169;28;20247;-36
2023/11/25 03:11:04;;;;;;;17.83;6.18;;;;;;;-3.05;71.18;96440.06;5026195;28;20041;-35
2023/11/25 03:13:30;;;;;;;14.90;5.97;;;;;;;-3.01;71.09;96444.16;5027515;28;20037;-36
2023/11/25 03:15:56;;;;;;;16.45;6.50;;;;;;;-3.01;71.22;96445.84;5014133;28;20129;-36
2023/11/25 03:18:22;;;;;;;15.55;6.78;;;;;;;-2.98;71.19;96447.47;5013315;28;20573;-35
2023/11/25 03:20:48;;;;;;;18.58;6.75;;;;;;;-3.00;70.91;96453.44;5029491;28;20052;-35
2023/11/25 03:23:16;;;;;;;13.38;5.97;;;;;;;-2.96;71.16;96451.63;5028971;28;20046;-36
2023/11/25 03:25:42;;;;;;;13.20;6.18;;;;;;;-2.94;71.25;96449.03;5027768;28;20041;-37
2023/11/25 03:28:10;;;;;;;13.20;5.80;;;;;;;-2.94;70.96;96464.28;5028231;28;20056;-36
2023/11/25 03:30:35;;;;;;;17.40;6.53;;;;;;;-2.98;71.29;96458.44;5028652;28;20045;-36
2023/11/25 03:33:02;;;;;;;12.77;5.68;;;;;;;-2.91;71.36;96459.91;5015346;28;20104;-35
2023/11/25 03:35:29;;;;;;;12.13;5.68;;;;;;;-2.87;71.11;96473.34;5028326;28;20091;-35
2023/11/25 03:37:55;;;;;;;17.55;7.03;;;;;;;-2.82;71.37;96474.00;5026940;28;20030;-34
2023/11/25 03:40:21;;;;;;;16.55;5.70;;;;;;;-2.81;70.97;96471.44;5029730;28;20509;-36
2023/11/25 03:42:48;;;;;;;12.88;6.03;;;;;;;-3.01;71.39;96438.22;5025011;28;20045;-34
2023/11/25 03:45:14;;;;;;;16.63;5.63;;;;;;;-2.82;71.20;96479.09;5028413;28;20041;-35
2023/11/25 03:47:42;;;;;;;16.08;5.82;;;;;;;-2.81;71.13;96476.50;5027364;28;20049;-35
2023/11/25 03:50:08;;;;;;;15.90;6.57;;;;;;;-3.01;71.31;96445.84;5016592;28;20052;-35
2023/11/25 03:52:35;;;;;;;12.57;5.25;;;;;;;-2.81;71.26;96484.13;5008867;28;20653;-34
2023/11/25 03:55:02;;;;;;;12.95;5.85;;;;;;;-2.81;71.27;96493.47;5023811;28;20053;-36
2023/11/25 03:57:29;;;;;;;13.40;5.97;;;;;;;-2.83;71.27;96485.09;5025600;28;20037;-35
2023/11/25 03:59:55;;;;;;;14.55;6.25;;;;;;;-2.82;71.33;96492.63;5027518;28;20057;-35
2023/11/25 04:02:21;;;;;;;17.25;6.80;;;;;;;-2.79;71.13;96502.72;5027126;28;20425;-36
2023/11/25 04:04:47;;;;;;;14.68;6.25;;;;;;;-2.74;71.21;96500.84;5007521;28;20048;-36
2023/11/25 04:07:13;;;;;;;14.18;6.38;;;;;;;-2.69;71.22;96506.63;5024008;28;20041;-36
2023/11/25 04:09:39;;;;;;;13.68;5.78;;;;;;;-2.65;71.30;96513.25;5008275;28;20077;-35
2023/11/25 04:12:06;;;;;;;19.10;6.05;;;;;;;-2.65;71.30;96520.88;5042406;28;20157;-35
2023/11/25 04:14:32;;;;;;;12.45;5.80;;;;;;;-2.75;71.16;96499.19;5042133;28;20049;-37
2023/11/25 04:16:57;;;;;;;14.60;5.85;;;;;;;-2.76;71.14;96499.22;5022715;28;20055;-34
2023/11/25 04:19:24;;;;;;;12.75;5.82;;;;;;;-2.55;70.84;96534.13;5027579;28;20517;-36
2023/11/25 04:21:51;;;;;;;14.20;5.80;;;;;;;-2.54;70.80;96542.56;5023660;28;20053;-35
2023/11/25 04:24:19;;;;;;;13.30;6.55;;;;;;;-2.54;70.71;96542.56;5028934;28;20046;-36
2023/11/25 04:26:46;;;;;;;17.45;6.30;;;;;;;-2.47;70.68;96542.34;5023805;28;20041;-36
2023/11/25 04:29:12;;;;;;;15.70;6.35;;;;;;;-2.47;70.51;96544.03;5022933;28;20045;-35
2023/11/25 04:31:39;;;;;;;17.08;5.82;;;;;;;-2.44;70.49;96552.41;5028560;28;20555;-36
2023/11/25 04:34:05;;;;;;;12.63;5.65;;;;;;;-2.45;70.32;96550.72;5027517;28;20045;-35
2023/11/25 04:36:32;;;;;;;15.68;5.97;;;;;;;-2.51;69.99;96550.91;5026676;28;20045;-36
2023/11/25 04:38:59;;;;;;;14.23;6.38;;;;;;;-2.56;70.09;96542.63;5028180;28;20171;-35
2023/11/25 04:41:26;;;;;;;13.80;5.65;;;;;;;-2.48;70.19;96544.91;5027185;28;20103;-35
2023/11/25 04:43:52;;;;;;;12.98;6.03;;;;;;;-2.51;69.98;96545.03;5026627;28;20051;-34
2023/11/25 04:46:18;;;;;;;15.60;6.10;;;;;;;-2.73;69.88;96522.03;5042632;28;20509;-35
2023/11/25 04:48:44;;;;;;;14.13;5.70;;;;;;;-2.77;69.64;96531.44;5028062;28;20157;-35
2023/11/25 04:51:10;;;;;;;13.45;6.00;;;;;;;-2.64;69.79;96562.38;5027203;28;20045;-35
2023/11/25 04:53:36;;;;;;;14.18;5.70;;;;;;;-2.57;69.55;96574.03;5028947;28;20041;-35
2023/11/25 04:56:04;;;;;;;14.00;6.30;;;;;;;-2.51;69.13;96575.56;5026609;28;20046;-36
2023/11/25 04:58:30;;;;;;;13.68;5.30;;;;;;;-2.46;69.29;96584.66;5008184;28;20600;-36
2023/11/25 05:00:57;;;;;;;15.65;5.88;;;;;;;-2.44;69.03;96584.63;5039271;28;20114;-37
2023/11/25 05:03:25;;;;;;;13.32;6.15;;;;;;;-2.42;68.59;96596.41;5025323;28;20163;-36
2023/11/25 05:05:52;;;;;;;9.70;4.95;;;;;;;-2.41;68.52;96592.16;5027559;28;20052;-35
2023/11/25 05:08:17;;;;;;;11.85;4.65;;;;;;;-2.40;68.48;96591.25;5026714;28;20045;-36
2023/11/25 05:10:44;;;;;;;15.25;5.75;;;;;;;-2.43;68.31;96593.91;5022926;28;20462;-35
2023/11/25 05:13:11;;;;;;;15.68;6.45;;;;;;;-2.51;68.18;96599.25;5023838;28;20144;-41
2023/11/25 05:15:37;;;;;;;15.73;6.20;;;;;;;-2.46;68.14;96599.13;5022637;28;20531;-35
2023/11/25 05:18:03;;;;;;;12.95;5.32;;;;;;;-2.42;67.93;96618.47;5029198;28;20041;-37
2023/11/25 05:20:28;;;;;;;13.45;5.25;;;;;;;-2.41;67.68;96625.22;5018139;28;20041;-35
2023/11/25 05:22:54;;;;;;;13.35;5.10;;;;;;;-2.39;67.63;96639.53;5021241;28;20541;-36
2023/11/25 05:25:22;;;;;;;16.02;5.38;;;;;;;-2.39;67.31;96636.16;5015463;28;20487;-36
2023/11/25 05:27:48;;;;;;;18.67;6.70;;;;;;;-2.38;67.22;96638.66;5022929;28;20056;-36
2023/11/25 05:30:15;;;;;;;11.75;5.38;;;;;;;-2.32;67.23;96650.34;5048316;28;20073;-36
2023/11/25 05:32:44;;;;;;;13.20;5.47;;;;;;;-2.33;67.26;96641.91;5057946;28;20521;-36
2023/11/25 05:35:11;;;;;;;12.57;5.53;;;;;;;-2.57;67.43;96607.09;5008518;28;20056;-36
2023/11/25 05:37:37;;;;;;;11.10;5.10;;;;;;;-2.36;67.01;96654.72;5025938;28;20402;-35
2023/11/25 05:40:06;;;;;;;12.48;5.13;;;;;;;-2.37;67.31;96652.22;5025557;28;20048;-36
2023/11/25 05:42:32;;;;;;;13.25;5.60;;;;;;;-2.35;67.22;96664.00;5026274;28;20604;-36
2023/11/25 05:44:58;;;;;;;13.00;5.72;;;;;;;-2.36;66.82;96662.34;5025419;28;20552;-36
2023/11/25 05:47:24;;;;;;;13.88;5.72;;;;;;;-2.40;66.91;96672.66;5025686;28;20045;-35
2023/11/25 05:49:50;;;;;;;15.68;6.30;;;;;;;-2.45;66.73;96677.03;5024403;28;20073;-36
2023/11/25 05:52:16;;;;;;;12.13;5.13;;;;;;;-2.45;66.32;96688.06;5025724;28;20064;-36
2023/11/25 05:54:43;;;;;;;14.07;6.20;;;;;;;-2.47;66.37;96694.06;5026186;28;20084;-36
2023/11/25 05:57:10;;;;;;;14.05;5.70;;;;;;;-2.85;66.36;96645.22;5024618;28;20041;-37
2023/11/25 05:59:36;;;;;;;11.82;5.53;;;;;;;-2.65;66.52;96686.13;5020929;28;20536;-37
2023/11/25 06:02:02;;;;;;;17.95;6.07;;;;;;;-2.51;66.48;96702.69;5027225;28;20041;-38
2023/11/25 06:04:28;;;;;;;15.27;6.22;;;;;;;-2.48;66.43;96711.03;5026214;28;20052;-37
2023/11/25 06:06:54;;;;;;;11.05;5.28;;;;;;;-2.45;66.20;96710.94;5026776;28;20048;-38
2023/11/25 06:09:20;;;;;;;18.27;6.75;;;;;;;-2.45;66.13;96718.56;5012396;28;20057;-37
2023/11/25 06:11:50;;;;;;;17.17;7.05;;;;;;;-2.46;66.10;96716.91;5027702;28;20045;-36
2023/11/25 06:14:19;;;;;;;15.55;6.78;;;;;;;-2.43;66.10;96714.28;5021174;28;20111;-37
2023/11/25 06:16:48;;;;;;;14.98;6.28;;;;;;;-2.49;66.02;96721.25;5026281;28;20037;-36
2023/11/25 06:19:17;;;;;;;16.03;5.90;;;;;;;-2.50;65.84;96720.41;5007965;28;20063;-36
2023/11/25 06:21:43;;;;;;;;;;;;;;;-2.47;65.70;96738.16;5008962;28;20037;-37
2023/11/25 06:24:09;;;;;;;13.60;5.47;;;;;;;-2.50;65.41;96743.31;5025331;28;19918;-36
2023/11/25 06:26:35;;;;;;;13.80;5.03;;;;;;;-2.49;65.54;96750.06;5024093;28;20084;-36
2023/11/25 06:29:01;;;;;;;17.75;6.30;;;;;;;-2.48;65.56;96745.81;5024888;28;20041;-35
2023/11/25 06:31:26;;;;;;;14.80;5.72;;;;;;;-2.51;65.62;96751.81;5037986;28;20044;-37
2023/11/25 06:33:52;;;;;;;16.17;6.13;;;;;;;-2.48;65.70;96753.44;5025643;28;20045;-37
2023/11/25 06:36:18;;;;;;;14.30;5.95;;;;;;;-2.49;65.53;96760.22;5028998;28;20037;-37
2023/11/25 06:38:44;;;;;;;14.85;5.80;;;;;;;-2.43;65.37;96770.22;5029838;28;20517;-38
2023/11/25 06:41:11;;;;;;;17.10;6.47;;;;;;;-2.37;65.28;96771.75;5029795;28;20063;-36
2023/11/25 06:43:38;;;;;;;15.75;5.72;;;;;;;-2.35;65.30;96786.09;5026561;28;20049;-37
2023/11/25 06:46:05;;;;;;;13.00;5.90;;;;;;;-2.24;64.96;96788.31;5047069;28;20048;-36
2023/11/25 06:48:31;;;;;;;12.43;5.50;;;;;;;-2.24;64.92;96786.59;5013391;28;20128;-37
2023/11/25 06:50:58;;;;;;;12.77;5.25;;;;;;;-2.13;64.73;96796.44;5028798;28;20122;-37
2023/11/25 06:53:24;;;;;;;17.33;6.90;;;;;;;-2.06;64.53;96805.56;5030054;28;20119;-36
2023/11/25 06:55:50;;;;;;;12.45;5.63;;;;;;;-2.19;64.35;96778.81;5028041;28;20061;-36
2023/11/25 06:58:18;;;;;;;16.90;5.90;;;;;;;-1.97;64.41;96818.00;5025790;28;20504;-37
2023/11/25 07:00:44;;;;;;;16.55;7.60;;;;;;;-1.93;64.29;96824.66;5028767;28;20119;-36
2023/11/25 07:03:11;;;;;;;16.20;6.40;;;;;;;-2.10;64.25;96790.44;5027529;28;20192;-37
2023/11/25 07:05:40;;;;;;;17.58;6.82;;;;;;;-1.88;64.06;96839.78;5044047;28;20041;-36
2023/11/25 07:08:06;;;;;;;16.25;6.50;;;;;;;-1.91;64.03;96833.09;5029341;28;20363;-36
2023/11/25 07:10:35;;;;;;;13.73;5.80;;;;;;;-1.85;63.94;96835.44;5011882;28;20050;-38
2023/11/25 07:13:02;;;;;;;15.48;6.75;;;;;;;-1.87;63.87;96846.53;5029419;28;20087;-37
2023/11/25 07:15:29;;;;;;;18.02;6.68;;;;;;;-1.99;63.75;96821.50;5027922;28;20065;-39
2023/11/25 07:17:56;;;;;;;13.43;6.07;;;;;;;-1.71;63.48;96856.22;5029337;28;20067;-36
2023/11/25 07:20:22;;;;;;;24.15;6.35;;;;;;;-1.76;63.37;96865.72;5028999;28;20037;-37
2023/11/25 07:22:47;;;;;;;18.13;6.10;;;;;;;-1.73;63.37;96864.81;5028731;28;20041;-36
2023/11/25 07:25:13;;;;;;;15.68;6.18;;;;;;;-1.82;63.29;96848.06;5023427;28;20080;-37
2023/11/25 07:27:46;;;;;;;15.80;6.03;;;;;;;-1.71;63.05;96863.03;5024905;28;20509;-35
2023/11/25 07:30:16;;;;;;;17.38;5.90;;;;;;;-1.67;62.88;96887.50;5028240;28;20456;-37
2023/11/25 07:32:43;;;;;;;17.00;5.95;;;;;;;-1.63;63.23;96881.47;5025729;28;20044;-36
2023/11/25 07:35:10;;;;;;;14.23;5.72;;;;;;;-1.61;62.87;96894.13;5054943;28;20501;-37
2023/11/25 07:37:39;;;;;;;14.43;5.80;;;;;;;-1.59;62.66;96903.41;5027320;28;20464;-37
2023/11/25 07:40:15;;;;;;;;;;;;;;;-1.59;62.45;96908.50;5025397;28;20125;-35
2023/11/25 07:42:45;;;;;;;18.83;6.80;;;;;;;-1.66;62.28;96908.72;5026745;28;19921;-38
2023/11/25 07:45:11;;;;;;;17.25;6.63;;;;;;;-1.64;62.31;96924.78;5010971;28;20056;-38
2023/11/25 07:47:37;;;;;;;16.27;6.07;;;;;;;-1.63;62.34;96929.00;5029215;28;20041;-36
2023/11/25 07:50:04;;;;;;;14.18;6.13;;;;;;;-1.62;62.62;96946.75;5027703;28;20042;-38
2023/11/25 07:52:31;;;;;;;18.80;6.22;;;;;;;-1.63;62.43;96950.22;5028461;28;20536;-39
2023/11/25 07:54:58;;;;;;;14.25;6.10;;;;;;;-1.64;62.48;96958.72;5009860;28;20422;-40
2023/11/25 07:57:24;;;;;;;14.85;6.18;;;;;;;-1.63;62.20;96964.66;5027656;28;20488;-38
2023/11/25 07:59:50;;;;;;;18.63;6.10;;;;;;;-1.57;62.47;96967.03;5023855;28;20064;-38
2023/11/25 08:02:16;;;;;;;16.83;5.55;;;;;;;-1.91;62.30;96917.09;5028251;28;20051;-40
2023/11/25 08:04:42;;;;;;;16.25;6.70;;;;;;;-1.56;62.29;96992.44;5007137;28;20143;-40
2023/11/25 08:07:08;;;;;;;13.98;5.82;;;;;;;-1.78;62.45;96958.31;5028510;28;20049;-39
2023/11/25 08:09:33;;;;;;;15.00;6.13;;;;;;;-1.55;62.37;96998.38;5027712;28;20045;-40
2023/11/25 08:12:00;;;;;;;16.00;6.47;;;;;;;-1.51;62.27;96999.94;5028185;28;20094;-40
2023/11/25 08:14:26;;;;;;;19.48;6.65;;;;;;;-1.54;61.97;97005.97;5025146;28;20126;-38
2023/11/25 08:16:52;;;;;;;16.67;6.70;;;;;;;-1.52;62.24;97004.22;5027531;28;20152;-39
2023/11/25 08:19:21;;;;;;;17.83;7.28;;;;;;;-1.47;62.16;97006.63;5031108;28;20543;-39
2023/11/25 08:21:48;;;;;;;18.00;6.85;;;;;;;-1.65;61.73;96967.25;5036042;28;20044;-38
2023/11/25 08:24:17;;;;;;;21.48;6.63;;;;;;;-1.26;61.58;97023.81;5018758;28;20040;-37
2023/11/25 08:26:44;;;;;;;20.00;7.22;;;;;;;-1.27;61.63;97023.88;5015810;28;20052;-39
2023/11/25 08:29:11;;;;;;;18.48;7.10;;;;;;;-1.25;61.71;97032.28;5016277;28;20041;-41
2023/11/25 08:31:38;;;;;;;23.42;8.63;;;;;;;-1.12;61.77;97039.53;5028516;28;20070;-39
2023/11/25 08:34:07;;;;;;;17.02;7.30;;;;;;;-1.41;61.35;96984.31;5027757;28;20059;-38
2023/11/25 08:36:32;;;;;;;16.58;7.03;;;;;;;-1.03;61.46;97043.50;5026263;28;20394;-39
2023/11/25 08:39:01;;;;;;;17.55;7.18;;;;;;;-1.06;61.36;97067.38;5011859;28;20170;-39
2023/11/25 08:41:30;;;;;;;19.03;7.10;;;;;;;-1.08;61.50;97068.28;5026472;28;20144;-39
2023/11/25 08:43:59;;;;;;;17.80;6.55;;;;;;;-1.02;61.44;97065.56;5026883;28;20509;-39
2023/11/25 08:46:25;;;;;;;13.32;6.82;;;;;;;-0.96;61.24;97063.66;5026107;28;20095;-39
2023/11/25 08:48:51;;;;;;;16.38;6.47;;;;;;;-0.89;61.01;97061.78;5028613;28;20068;-38
2023/11/25 08:51:17;;;;;;;20.92;7.32;;;;;;;-0.76;60.96;97064.75;5042251;28;20552;-39
2023/11/25 08:53:47;;;;;;;15.93;6.78;;;;;;;-0.54;60.38;97070.84;5030206;28;20059;-39
2023/11/25 08:56:13;;;;;;;19.67;7.40;;;;;;;-0.40;60.31;97061.00;5027636;28;20038;-40
2023/11/25 08:58:40;;;;;;;15.57;6.53;;;;;;;-0.24;59.74;97064.72;5012193;28;20567;-39
2023/11/25 09:01:07;;;;;;;15.63;6.82;;;;;;;-0.20;59.60;97071.41;5014712;28;20044;-38
2023/11/25 09:03:33;;;;;;;19.90;7.45;;;;;;;-0.24;59.64;97031.53;5026035;28;20528;-39
2023/11/25 09:05:59;;;;;;;17.60;7.75;;;;;;;-0.09;59.03;97078.69;5034847;28;20541;-38
2023/11/25 09:08:25;;;;;;;18.55;7.03;;;;;;;-0.12;59.11;97094.13;5021611;28;20128;-40
2023/11/25 09:10:51;;;;;;;15.82;6.88;;;;;;;-0.28;59.00;97083.59;5027059;28;20090;-38
2023/11/25 09:13:17;;;;;;;20.75;7.50;;;;;;;-0.16;59.56;97106.13;5027200;28;20049;-38
2023/11/25 09:15:45;;;;;;;28.92;9.35;;;;;;;-0.14;59.39;97119.69;5023544;28;20501;-38
2023/11/25 09:18:12;;;;;;;15.77;7.07;;;;;;;-0.12;59.40;97112.00;5036378;28;20037;-38
2023/11/25 09:20:38;;;;;;;17.35;7.63;;;;;;;-0.11;59.28;97123.88;5029161;28;20091;-39
2023/11/25 09:23:03;;;;;;;21.95;7.88;;;;;;;-0.05;59.42;97126.22;5021034;28;20037;-38
2023/11/25 09:25:31;;;;;;;18.75;7.55;;;;;;;-0.05;59.67;97111.72;5039500;28;20091;-40
2023/11/25 09:27:57;;;;;;;24.60;8.45;;;;;;;-0.01;59.36;97117.59;5032192;28;20137;-38
2023/11/25 09:30:23;;;;;;;20.02;8.80;;;;;;;-0.04;59.38;97098.06;5028256;28;20045;-39
2023/11/25 09:32:49;;;;;;;16.50;7.82;;;;;;;-0.12;59.00;97091.56;5028337;28;20041;-37
2023/11/25 09:35:15;;;;;;;19.60;8.32;;;;;;;0.07;59.45;97142.84;5029984;28;20691;-38
2023/11/25 09:37:42;;;;;;;22.52;8.60;;;;;;;-0.18;59.08;97130.91;5034045;28;20033;-38
2023/11/25 09:40:14;;;;;;;20.92;8.65;;;;;;;-0.19;59.09;97167.53;5010241;28;20072;-38
2023/11/25 09:42:44;;;;;;;21.88;8.07;;;;;;;-0.20;59.46;97168.41;5013231;28;20041;-43
2023/11/25 09:45:11;;;;;;;18.33;7.97;;;;;;;-0.21;59.41;97179.50;5013915;28;20095;-36
2023/11/25 09:47:45;;;;;;;19.27;7.78;;;;;;;-0.35;59.60;97186.75;5025315;28;20048;-37
2023/11/25 09:50:12;;;;;;;21.58;8.55;;;;;;;-0.43;59.51;97193.81;5029201;28;20505;-38
2023/11/25 09:52:50;;;;;;;22.50;8.35;;;;;;;-0.49;59.67;97173.59;5023082;28;20048;-38
2023/11/25 09:55:19;;;;;;;21.85;7.70;;;;;;;-0.43;60.28;97181.91;5017519;28;20045;-56
2023/11/25 09:57:49;;;;;;;18.05;7.80;;;;;;;-0.74;60.19;97145.44;5032111;28;20168;-38
2023/11/25 10:00:17;;;;;;;12.98;6.43;;;;;;;-0.55;60.13;97218.00;5020216;28;20441;-38
2023/11/25 10:02:53;;;;;;;16.33;7.47;;;;;;;-0.92;59.90;97168.94;5022414;28;20045;-38
2023/11/25 10:05:19;;;;;;;18.10;6.70;;;;;;;-0.54;60.32;97229.03;5008140;28;20433;-38
2023/11/25 10:07:45;;;;;;;15.23;7.07;;;;;;;-0.54;60.39;97231.59;5026115;28;20045;-38
2023/11/25 10:10:11;;;;;;;16.00;7.30;;;;;;;-0.45;60.54;97247.44;5025237;28;20048;-38
2023/11/25 10:12:40;;;;;;;16.30;6.75;;;;;;;-0.46;60.57;97239.84;5025486;28;20049;-39
2023/11/25 10:15:07;;;;;;;16.20;7.60;;;;;;;-0.49;60.89;97247.59;5015491;28;20049;-38
2023/11/25 10:17:33;;;;;;;18.05;7.07;;;;;;;-0.51;61.04;97251.88;5024123;28;20037;-38
2023/11/25 10:20:09;;;;;;;18.92;7.75;;;;;;;-0.49;60.89;97262.91;5025424;28;20448;-39
2023/11/25 10:22:58;;;;;;;14.90;6.53;;;;;;;-0.78;60.96;97210.16;5023994;28;20429;-39
2023/11/25 10:25:26;;;;;;;16.80;7.03;;;;;;;-0.64;61.18;97238.69;5025436;28;20509;-38
2023/11/25 10:27:53;;;;;;;22.08;7.45;;;;;;;-0.47;61.37;97267.06;5025570;28;20510;-39
2023/11/25 10:30:20;;;;;;;18.80;7.50;;;;;;;-0.60;61.15;97237.69;5023301;28;20034;-38
2023/11/25 10:32:49;;;;;;;14.25;6.50;;;;;;;-0.61;61.20;97237.75;5024331;28;20052;-37
2023/11/25 10:35:14;;;;;;;17.00;6.75;;;;;;;-0.43;61.49;97275.47;5025504;28;20072;-37
2023/11/25 10:37:41;;;;;;;16.65;7.40;;;;;;;-0.46;61.14;97278.94;5024043;28;20497;-38
2023/11/25 10:40:09;;;;;;;15.32;7.47;;;;;;;-0.40;61.43;97282.19;5024289;28;20063;-38
2023/11/25 10:42:38;;;;;;;15.27;6.73;;;;;;;-0.32;61.17;97291.31;5024612;28;20049;-38
2023/11/25 10:45:05;;;;;;;18.00;7.53;;;;;;;-0.38;61.36;97296.59;5024989;28;20046;-39
2023/11/25 10:47:32;;;;;;;17.17;6.70;;;;;;;-0.38;61.42;97298.31;5026435;28;20049;-45
2023/11/25 10:50:01;;;;;;;16.02;7.55;;;;;;;-0.44;61.43;97307.81;5025847;28;20049;-38
2023/11/25 10:52:32;;;;;;;16.48;7.63;;;;;;;-0.56;61.00;97307.31;5023528;28;20044;-37
2023/11/25 10:54:58;;;;;;;14.27;6.68;;;;;;;-0.60;61.31;97323.59;5025781;28;20729;-37
2023/11/25 10:57:24;;;;;;;22.10;7.65;;;;;;;-0.94;61.44;97296.47;5023472;28;20469;-39
2023/11/25 10:59:55;;;;;;;16.83;7.72;;;;;;;-0.82;61.74;97325.06;5023471;28;20052;-38
2023/11/25 11:02:36;;;;;;;15.25;6.82;;;;;;;-0.84;61.58;97326.84;5024373;28;20037;-39
2023/11/25 11:05:08;;;;;;;16.10;7.28;;;;;;;-0.89;61.87;97332.06;5023553;28;20077;-38
2023/11/25 11:07:46;;;;;;;16.33;7.35;;;;;;;-0.96;61.80;97333.09;5010461;28;20097;-39
2023/11/25 11:10:16;;;;;;;16.80;7.32;;;;;;;-0.90;61.95;97336.31;5023546;28;20105;-39
2023/11/25 11:13:08;;;;;;;25.67;8.77;;;;;;;-1.21;61.69;97338.00;5008944;28;20105;-40
2023/11/25 11:15:36;;;;;;;18.10;8.05;;;;;;;-1.35;62.34;97348.50;5018648;28;20144;-39
2023/11/25 11:18:13;;;;;;;18.42;7.70;;;;;;;-1.21;62.56;97355.84;5025350;28;20056;-39
2023/11/25 11:20:49;;;;;;;13.32;6.50;;;;;;;-1.15;62.09;97358.19;5013574;28;20041;-40
2023/11/25 11:23:16;;;;;;;15.55;7.07;;;;;;;-1.32;62.32;97366.28;5016905;28;20706;-40
2023/11/25 11:25:55;;;;;;;16.70;6.38;;;;;;;-1.59;62.22;97351.66;5026458;28;20063;-38